createdAt,value
2022-12-08T00:00:17.346Z,3395
2022-12-08T00:05:47.847Z,3438
2022-12-08T00:11:18.302Z,3488
2022-12-08T00:16:48.984Z,3513
2022-12-08T00:22:19.395Z,3551
2022-12-08T00:27:49.847Z,3603
2022-12-08T00:33:20.557Z,3648
2022-12-08T00:38:51.059Z,3674
2022-12-08T00:44:21.639Z,3716
2022-12-08T00:49:52.108Z,3766
2022-12-08T00:55:22.727Z,3821
2022-12-08T01:00:53.317Z,3863
2022-12-08T01:06:23.748Z,3892
2022-12-08T01:11:53.259Z,3931
2022-12-08T01:17:23.758Z,3974
2022-12-08T01:22:54.228Z,4020
2022-12-08T01:28:24.855Z,4091
2022-12-08T01:33:55.290Z,4137
2022-12-08T01:39:25.888Z,4158
2022-12-08T01:44:56.400Z,4204
2022-12-08T01:50:26.854Z,4233
2022-12-08T01:55:57.428Z,4283
2022-12-08T02:01:28.211Z,4293
2022-12-08T02:06:59.271Z,4335
2022-12-08T02:12:27.970Z,4402
2022-12-08T02:17:58.455Z,4439
2022-12-08T02:23:28.923Z,4483
2022-12-08T02:28:59.501Z,4517
2022-12-08T02:34:30.031Z,4525
2022-12-08T02:40:00.591Z,4570
2022-12-08T02:45:31.053Z,4624
2022-12-08T02:51:01.558Z,4642
2022-12-08T02:56:32.126Z,4670
2022-12-08T03:02:02.636Z,4717
2022-12-08T03:07:33.094Z,4743
2022-12-08T03:13:02.807Z,4774
2022-12-08T03:18:33.076Z,4798
2022-12-08T03:24:03.563Z,4825
2022-12-08T03:29:33.027Z,4860
2022-12-08T03:35:03.504Z,4933
2022-12-08T03:40:34.015Z,4895
2022-12-08T03:46:04.653Z,4903
2022-12-08T03:51:35.044Z,4932
2022-12-08T03:57:05.545Z,4965
2022-12-08T04:02:36.127Z,4977
2022-12-08T04:08:06.599Z,4986
2022-12-08T04:13:37.225Z,5008
2022-12-08T04:19:07.675Z,5019
2022-12-08T04:24:38.278Z,5049
2022-12-08T04:30:08.909Z,5065
2022-12-08T04:35:39.344Z,5119
2022-12-08T04:41:09.947Z,5195
2022-12-08T04:46:43.553Z,5211
2022-12-08T04:52:09.997Z,5239
2022-12-08T04:57:40.478Z,5273
2022-12-08T05:03:10.996Z,5273
2022-12-08T05:08:41.561Z,5289
2022-12-08T05:14:12.053Z,5314
2022-12-08T05:19:42.517Z,5337
2022-12-08T05:25:13.088Z,5376
2022-12-08T05:30:43.686Z,5408
2022-12-08T05:36:14.198Z,5350
2022-12-08T05:41:43.665Z,5077
2022-12-08T05:47:14.187Z,4800
2022-12-08T05:52:43.695Z,4720
2022-12-08T05:58:14.148Z,4613
2022-12-08T06:03:44.650Z,4522
2022-12-08T06:09:15.275Z,4407
2022-12-08T06:14:45.720Z,4310
2022-12-08T06:20:16.173Z,4193
2022-12-08T06:25:45.682Z,4150
2022-12-08T06:31:16.141Z,4057
2022-12-08T06:36:46.724Z,3981
2022-12-08T06:42:17.354Z,3864
2022-12-08T06:47:47.802Z,3810
2022-12-08T06:53:18.386Z,3741
2022-12-08T06:58:52.517Z,3679
2022-12-08T07:04:19.418Z,3608
2022-12-08T07:09:48.845Z,3537
2022-12-08T07:15:19.351Z,3499
2022-12-08T07:20:49.922Z,3448
2022-12-08T07:26:20.554Z,3378
2022-12-08T07:31:51.029Z,3353
2022-12-08T07:37:21.563Z,3294
2022-12-08T07:42:52.092Z,3240
2022-12-08T07:48:22.554Z,3204
2022-12-08T07:53:54.481Z,3151
2022-12-08T07:59:23.596Z,3110
2022-12-08T08:04:54.361Z,3063
2022-12-08T08:10:24.691Z,3031
2022-12-08T08:15:55.263Z,3001
2022-12-08T08:26:56.228Z,2915
2022-12-08T08:32:26.677Z,2871
2022-12-08T08:37:56.236Z,2843
2022-12-08T08:43:26.660Z,2807
2022-12-08T08:48:56.127Z,2781
2022-12-08T08:54:26.651Z,2734
2022-12-08T08:59:57.114Z,2695
2022-12-08T09:05:27.690Z,2678
2022-12-08T09:10:58.215Z,2639
2022-12-08T09:16:28.816Z,2602
2022-12-08T09:21:59.333Z,2580
2022-12-08T09:27:29.835Z,2551
2022-12-08T09:33:00.393Z,2518
2022-12-08T09:38:30.870Z,2480
2022-12-08T09:44:01.364Z,2457
2022-12-08T09:49:31.933Z,2435
2022-12-08T09:55:02.414Z,2408
2022-12-08T10:00:32.881Z,2382
2022-12-08T10:06:03.481Z,2350
2022-12-08T10:11:33.958Z,2324
2022-12-08T10:17:04.657Z,2307
2022-12-08T10:22:38.653Z,2279
2022-12-08T10:28:05.598Z,2265
2022-12-08T10:33:36.122Z,2250
2022-12-08T10:39:06.709Z,2228
2022-12-08T10:44:37.270Z,2201
2022-12-08T10:50:08.055Z,2179
2022-12-08T10:55:38.351Z,2157
2022-12-08T11:01:08.839Z,2132
2022-12-08T11:06:39.442Z,2112
2022-12-08T11:12:09.917Z,2092
2022-12-08T11:17:40.378Z,2068
2022-12-08T11:23:10.002Z,2053
2022-12-08T11:28:40.447Z,2039
2022-12-08T11:34:09.954Z,2020
2022-12-08T11:39:40.432Z,2005
2022-12-08T11:45:10.887Z,1991
2022-12-08T11:50:40.364Z,1978
2022-12-08T11:56:10.879Z,1958
2022-12-08T12:01:42.807Z,1938
2022-12-08T12:07:11.928Z,1916
2022-12-08T12:12:42.415Z,1908
2022-12-08T12:18:16.488Z,1881
2022-12-08T12:23:43.584Z,1868
2022-12-08T12:29:14.116Z,1852
2022-12-08T12:34:44.668Z,1840
2022-12-08T12:40:15.162Z,1821
2022-12-08T12:45:45.769Z,1811
2022-12-08T12:51:15.136Z,1799
2022-12-08T12:56:45.602Z,1779
2022-12-08T13:02:16.159Z,1767
2022-12-08T13:07:45.623Z,1753
2022-12-08T13:13:16.047Z,1739
2022-12-08T13:18:46.762Z,1726
2022-12-08T13:24:17.193Z,1705
2022-12-08T13:29:47.698Z,1691
2022-12-08T13:35:17.242Z,1679
2022-12-08T13:40:47.652Z,1664
2022-12-08T13:57:18.760Z,1630
2022-12-08T14:02:48.686Z,1616
2022-12-08T14:08:36.297Z,1598
2022-12-08T14:13:48.712Z,1587
2022-12-08T14:19:18.172Z,1581
2022-12-08T14:24:48.673Z,1576
2022-12-08T14:30:19.108Z,1564
2022-12-08T14:35:49.708Z,1550
2022-12-08T14:41:20.217Z,1538
2022-12-08T14:46:50.850Z,1521
2022-12-08T14:52:21.257Z,1513
2022-12-08T14:57:51.774Z,1500
2022-12-08T15:03:21.292Z,1495
2022-12-08T15:08:51.781Z,1488
2022-12-08T15:14:22.379Z,1476
2022-12-08T15:19:52.836Z,1471
2022-12-08T15:25:23.317Z,1458
2022-12-08T15:30:54.038Z,1444
2022-12-08T15:36:24.374Z,1433
2022-12-08T15:41:54.884Z,1426
2022-12-08T15:47:24.372Z,1409
2022-12-08T15:52:54.812Z,1395
2022-12-08T15:58:53.055Z,1381
2022-12-08T16:09:25.483Z,1379
2022-12-08T16:15:48.467Z,1371
2022-12-08T16:20:44.027Z,1369
2022-12-08T16:26:20.462Z,1362
2022-12-08T16:31:26.464Z,1360
2022-12-08T16:36:56.950Z,1354
2022-12-08T16:42:26.352Z,1345
2022-12-08T16:47:56.828Z,1351
2022-12-08T16:53:27.310Z,1352
2022-12-08T16:58:57.911Z,1356
2022-12-08T17:04:32.293Z,1351
2022-12-08T17:09:58.916Z,1342
2022-12-08T17:15:29.471Z,1342
2022-12-08T17:20:59.973Z,1346
2022-12-08T17:26:30.565Z,1348
2022-12-08T17:32:01.094Z,1344
2022-12-08T17:37:31.514Z,1339
2022-12-08T17:43:02.115Z,1335
2022-12-08T17:48:32.594Z,1328
2022-12-08T17:54:03.134Z,1323
2022-12-08T17:59:33.734Z,1331
2022-12-08T18:05:04.166Z,1331
2022-12-08T18:10:34.627Z,1337
2022-12-08T18:16:05.246Z,1332
2022-12-08T18:21:35.695Z,1335
2022-12-08T18:27:06.163Z,1335
2022-12-08T18:32:36.787Z,1338
2022-12-08T18:38:07.228Z,1342
2022-12-08T18:43:37.839Z,1347
2022-12-08T18:49:08.321Z,1339
2022-12-08T19:00:08.809Z,1342
2022-12-08T19:05:38.811Z,1334
2022-12-08T19:11:09.252Z,1386
2022-12-08T19:16:39.877Z,1461
2022-12-08T19:22:10.360Z,1587
2022-12-08T19:27:40.917Z,1609
2022-12-08T19:33:11.472Z,1665
2022-12-08T19:38:41.997Z,1682
2022-12-08T19:44:11.456Z,1683
2022-12-08T19:49:41.998Z,1678
2022-12-08T19:55:12.456Z,1678
2022-12-08T20:00:41.927Z,1715
2022-12-08T20:06:12.417Z,1760
2022-12-08T20:11:42.885Z,1769
2022-12-08T20:17:13.489Z,1780
2022-12-08T20:22:43.935Z,1825
2022-12-08T20:28:13.448Z,1816
2022-12-08T20:33:43.921Z,1836
2022-12-08T20:39:14.378Z,1860
2022-12-08T20:44:45.002Z,1903
2022-12-08T20:50:15.519Z,1916
2022-12-08T20:55:46.297Z,1927
2022-12-08T21:01:16.766Z,1930
2022-12-08T21:06:47.136Z,1980
2022-12-08T21:12:17.988Z,2044
2022-12-08T21:17:48.192Z,2035
2022-12-08T21:23:18.635Z,2010
2022-12-08T21:28:49.239Z,2024
2022-12-08T21:34:19.746Z,2036
2022-12-08T21:39:50.302Z,2026
2022-12-08T21:45:20.927Z,2047
2022-12-08T21:50:51.469Z,2068
2022-12-08T21:56:22.026Z,2073
2022-12-08T22:01:52.612Z,2083
2022-12-08T22:07:22.844Z,2094
2022-12-08T22:12:53.379Z,2107
2022-12-08T22:18:24.049Z,2122
2022-12-08T22:23:54.603Z,2154
2022-12-08T22:29:24.991Z,2165
2022-12-08T22:34:55.747Z,2162
2022-12-08T22:40:25.179Z,2153
2022-12-08T22:45:55.607Z,2159
2022-12-08T22:51:25.900Z,2190
2022-12-08T22:56:55.380Z,2187
2022-12-08T23:02:25.962Z,2199
2022-12-08T23:07:55.537Z,2201
2022-12-08T23:13:25.806Z,2199
2022-12-08T23:18:56.257Z,2204
2022-12-08T23:24:25.724Z,2209
2022-12-08T23:29:56.246Z,2223
2022-12-08T23:35:26.869Z,2233
2022-12-08T23:40:57.154Z,2244
2022-12-08T23:46:28.117Z,2231
2022-12-08T23:51:58.458Z,2216
2022-12-08T23:57:28.819Z,2227
